sensor_id;sensor_type;location;lat;lon;timestamp;P1;durP1;ratioP1;P2;durP2;ratioP2
22963;SDS011;11648;49.306;6.934;2024-02-16T00:01:50;4.63;;;1.93;;
22963;SDS011;11648;49.306;6.934;2024-02-16T00:04:17;5.33;;;2.30;;
22963;SDS011;11648;49.306;6.934;2024-02-16T00:06:44;5.83;;;2.03;;
22963;SDS011;11648;49.306;6.934;2024-02-16T00:09:11;5.50;;;2.20;;
22963;SDS011;11648;49.306;6.934;2024-02-16T00:11:39;6.80;;;2.23;;
22963;SDS011;11648;49.306;6.934;2024-02-16T00:14:05;4.20;;;2.10;;
22963;SDS011;11648;49.306;6.934;2024-02-16T00:16:32;4.60;;;2.10;;
22963;SDS011;11648;49.306;6.934;2024-02-16T00:18:59;4.13;;;2.00;;
22963;SDS011;11648;49.306;6.934;2024-02-16T00:21:26;4.57;;;2.00;;
22963;SDS011;11648;49.306;6.934;2024-02-16T00:23:54;4.83;;;2.10;;
22963;SDS011;11648;49.306;6.934;2024-02-16T00:26:21;4.97;;;2.40;;
22963;SDS011;11648;49.306;6.934;2024-02-16T00:28:48;5.20;;;2.00;;
22963;SDS011;11648;49.306;6.934;2024-02-16T00:31:15;6.97;;;2.00;;
22963;SDS011;11648;49.306;6.934;2024-02-16T00:33:41;3.90;;;2.00;;
22963;SDS011;11648;49.306;6.934;2024-02-16T00:36:09;5.00;;;1.77;;
22963;SDS011;11648;49.306;6.934;2024-02-16T00:38:36;3.67;;;1.70;;
22963;SDS011;11648;49.306;6.934;2024-02-16T00:41:04;4.97;;;2.03;;
22963;SDS011;11648;49.306;6.934;2024-02-16T00:43:31;3.83;;;2.13;;
22963;SDS011;11648;49.306;6.934;2024-02-16T00:45:58;4.90;;;1.97;;
22963;SDS011;11648;49.306;6.934;2024-02-16T00:48:25;3.50;;;1.77;;
22963;SDS011;11648;49.306;6.934;2024-02-16T00:50:52;4.30;;;2.20;;
22963;SDS011;11648;49.306;6.934;2024-02-16T00:53:19;4.40;;;2.03;;
22963;SDS011;11648;49.306;6.934;2024-02-16T00:55:46;3.60;;;1.93;;
22963;SDS011;11648;49.306;6.934;2024-02-16T00:58:13;4.30;;;1.70;;
22963;SDS011;11648;49.306;6.934;2024-02-16T01:00:40;6.40;;;2.07;;
22963;SDS011;11648;49.306;6.934;2024-02-16T01:03:08;3.90;;;1.80;;
22963;SDS011;11648;49.306;6.934;2024-02-16T01:05:34;3.53;;;1.60;;
22963;SDS011;11648;49.306;6.934;2024-02-16T01:08:02;4.40;;;1.70;;
22963;SDS011;11648;49.306;6.934;2024-02-16T01:10:29;3.20;;;1.70;;
22963;SDS011;11648;49.306;6.934;2024-02-16T01:12:55;3.47;;;1.77;;
22963;SDS011;11648;49.306;6.934;2024-02-16T01:15:23;3.83;;;1.87;;
22963;SDS011;11648;49.306;6.934;2024-02-16T01:17:50;3.17;;;1.47;;
22963;SDS011;11648;49.306;6.934;2024-02-16T01:20:17;4.27;;;1.97;;
22963;SDS011;11648;49.306;6.934;2024-02-16T01:22:43;5.37;;;1.70;;
22963;SDS011;11648;49.306;6.934;2024-02-16T01:25:11;4.87;;;1.87;;
22963;SDS011;11648;49.306;6.934;2024-02-16T01:27:38;3.30;;;1.60;;
22963;SDS011;11648;49.306;6.934;2024-02-16T01:30:07;4.70;;;1.50;;
22963;SDS011;11648;49.306;6.934;2024-02-16T01:32:34;3.30;;;1.50;;
22963;SDS011;11648;49.306;6.934;2024-02-16T01:35:01;5.20;;;1.80;;
22963;SDS011;11648;49.306;6.934;2024-02-16T01:37:28;5.57;;;1.50;;
22963;SDS011;11648;49.306;6.934;2024-02-16T01:39:55;5.70;;;1.70;;
22963;SDS011;11648;49.306;6.934;2024-02-16T01:42:22;3.07;;;1.50;;
22963;SDS011;11648;49.306;6.934;2024-02-16T01:44:49;3.83;;;1.50;;
22963;SDS011;11648;49.306;6.934;2024-02-16T01:47:16;4.20;;;1.60;;
22963;SDS011;11648;49.306;6.934;2024-02-16T01:49:45;6.17;;;1.60;;
22963;SDS011;11648;49.306;6.934;2024-02-16T01:52:12;3.43;;;1.40;;
22963;SDS011;11648;49.306;6.934;2024-02-16T01:54:39;3.50;;;1.47;;
22963;SDS011;11648;49.306;6.934;2024-02-16T01:57:06;3.93;;;1.60;;
22963;SDS011;11648;49.306;6.934;2024-02-16T01:59:34;3.63;;;1.50;;
22963;SDS011;11648;49.306;6.934;2024-02-16T02:02:03;4.73;;;1.40;;
22963;SDS011;11648;49.306;6.934;2024-02-16T02:04:30;4.50;;;1.40;;
22963;SDS011;11648;49.306;6.934;2024-02-16T02:06:57;5.57;;;1.47;;
22963;SDS011;11648;49.306;6.934;2024-02-16T02:09:24;3.60;;;1.30;;
22963;SDS011;11648;49.306;6.934;2024-02-16T02:11:50;3.20;;;1.43;;
22963;SDS011;11648;49.306;6.934;2024-02-16T02:14:22;4.53;;;1.30;;
22963;SDS011;11648;49.306;6.934;2024-02-16T02:16:49;2.50;;;1.20;;
22963;SDS011;11648;49.306;6.934;2024-02-16T02:19:24;2.60;;;1.10;;
22963;SDS011;11648;49.306;6.934;2024-02-16T02:21:51;2.63;;;1.10;;
22963;SDS011;11648;49.306;6.934;2024-02-16T02:24:18;3.37;;;1.20;;
22963;SDS011;11648;49.306;6.934;2024-02-16T02:26:47;3.80;;;1.10;;
22963;SDS011;11648;49.306;6.934;2024-02-16T02:29:14;3.67;;;1.53;;
22963;SDS011;11648;49.306;6.934;2024-02-16T02:31:40;4.20;;;1.37;;
22963;SDS011;11648;49.306;6.934;2024-02-16T02:34:07;2.73;;;1.20;;
22963;SDS011;11648;49.306;6.934;2024-02-16T02:36:35;3.50;;;1.20;;
22963;SDS011;11648;49.306;6.934;2024-02-16T02:39:01;3.60;;;1.23;;
22963;SDS011;11648;49.306;6.934;2024-02-16T02:41:29;6.90;;;1.30;;
22963;SDS011;11648;49.306;6.934;2024-02-16T02:43:55;3.83;;;1.30;;
22963;SDS011;11648;49.306;6.934;2024-02-16T02:46:22;4.27;;;1.47;;
22963;SDS011;11648;49.306;6.934;2024-02-16T02:48:50;4.23;;;1.27;;
22963;SDS011;11648;49.306;6.934;2024-02-16T02:51:18;2.43;;;1.10;;
22963;SDS011;11648;49.306;6.934;2024-02-16T02:53:45;3.13;;;1.37;;
22963;SDS011;11648;49.306;6.934;2024-02-16T02:56:12;3.27;;;1.10;;
22963;SDS011;11648;49.306;6.934;2024-02-16T02:58:39;2.90;;;1.10;;
22963;SDS011;11648;49.306;6.934;2024-02-16T03:01:06;3.47;;;1.13;;
22963;SDS011;11648;49.306;6.934;2024-02-16T03:03:35;3.07;;;1.00;;
22963;SDS011;11648;49.306;6.934;2024-02-16T03:06:02;4.73;;;1.30;;
22963;SDS011;11648;49.306;6.934;2024-02-16T03:08:30;5.10;;;1.23;;
22963;SDS011;11648;49.306;6.934;2024-02-16T03:10:57;2.70;;;1.17;;
22963;SDS011;11648;49.306;6.934;2024-02-16T03:13:27;2.93;;;1.10;;
22963;SDS011;11648;49.306;6.934;2024-02-16T03:15:54;2.77;;;1.33;;
22963;SDS011;11648;49.306;6.934;2024-02-16T03:18:24;3.13;;;0.87;;
22963;SDS011;11648;49.306;6.934;2024-02-16T03:20:51;3.87;;;1.30;;
22963;SDS011;11648;49.306;6.934;2024-02-16T03:23:18;2.60;;;1.10;;
22963;SDS011;11648;49.306;6.934;2024-02-16T03:25:44;3.47;;;1.20;;
22963;SDS011;11648;49.306;6.934;2024-02-16T03:28:12;2.70;;;1.13;;
22963;SDS011;11648;49.306;6.934;2024-02-16T03:30:39;3.93;;;1.23;;
22963;SDS011;11648;49.306;6.934;2024-02-16T03:33:07;5.13;;;1.20;;
22963;SDS011;11648;49.306;6.934;2024-02-16T03:35:35;4.30;;;1.23;;
22963;SDS011;11648;49.306;6.934;2024-02-16T03:38:03;3.67;;;1.17;;
22963;SDS011;11648;49.306;6.934;2024-02-16T03:40:30;2.90;;;1.10;;
22963;SDS011;11648;49.306;6.934;2024-02-16T03:42:57;1.60;;;0.87;;
22963;SDS011;11648;49.306;6.934;2024-02-16T03:45:25;3.17;;;1.30;;
22963;SDS011;11648;49.306;6.934;2024-02-16T03:47:53;2.50;;;1.20;;
22963;SDS011;11648;49.306;6.934;2024-02-16T03:50:21;4.50;;;1.30;;
22963;SDS011;11648;49.306;6.934;2024-02-16T03:52:49;3.27;;;1.30;;
22963;SDS011;11648;49.306;6.934;2024-02-16T03:55:15;2.17;;;1.07;;
22963;SDS011;11648;49.306;6.934;2024-02-16T03:57:42;2.90;;;1.33;;
22963;SDS011;11648;49.306;6.934;2024-02-16T04:00:09;3.30;;;1.30;;
22963;SDS011;11648;49.306;6.934;2024-02-16T04:02:40;3.83;;;1.20;;
22963;SDS011;11648;49.306;6.934;2024-02-16T04:05:07;3.10;;;1.30;;
22963;SDS011;11648;49.306;6.934;2024-02-16T04:07:35;3.13;;;1.07;;
22963;SDS011;11648;49.306;6.934;2024-02-16T04:10:02;2.87;;;1.30;;
22963;SDS011;11648;49.306;6.934;2024-02-16T04:12:29;4.97;;;1.27;;
22963;SDS011;11648;49.306;6.934;2024-02-16T04:14:56;2.57;;;1.20;;
22963;SDS011;11648;49.306;6.934;2024-02-16T04:17:23;4.93;;;1.30;;
22963;SDS011;11648;49.306;6.934;2024-02-16T04:19:50;4.90;;;1.30;;
22963;SDS011;11648;49.306;6.934;2024-02-16T04:22:17;4.47;;;1.40;;
22963;SDS011;11648;49.306;6.934;2024-02-16T04:24:43;4.73;;;1.27;;
22963;SDS011;11648;49.306;6.934;2024-02-16T04:27:10;2.50;;;1.20;;
22963;SDS011;11648;49.306;6.934;2024-02-16T04:29:37;3.00;;;1.10;;
22963;SDS011;11648;49.306;6.934;2024-02-16T04:32:04;3.67;;;1.20;;
22963;SDS011;11648;49.306;6.934;2024-02-16T04:34:31;2.70;;;1.20;;
22963;SDS011;11648;49.306;6.934;2024-02-16T04:36:58;4.27;;;1.60;;
22963;SDS011;11648;49.306;6.934;2024-02-16T04:39:25;3.63;;;1.43;;
22963;SDS011;11648;49.306;6.934;2024-02-16T04:41:52;4.77;;;1.20;;
22963;SDS011;11648;49.306;6.934;2024-02-16T04:44:20;3.87;;;1.43;;
22963;SDS011;11648;49.306;6.934;2024-02-16T04:46:47;5.60;;;1.70;;
22963;SDS011;11648;49.306;6.934;2024-02-16T04:49:13;2.40;;;1.10;;
22963;SDS011;11648;49.306;6.934;2024-02-16T04:51:40;2.97;;;1.30;;
22963;SDS011;11648;49.306;6.934;2024-02-16T04:54:07;5.13;;;1.43;;
22963;SDS011;11648;49.306;6.934;2024-02-16T04:56:34;2.80;;;1.37;;
22963;SDS011;11648;49.306;6.934;2024-02-16T04:59:01;2.47;;;1.20;;
22963;SDS011;11648;49.306;6.934;2024-02-16T05:01:28;3.83;;;1.30;;
22963;SDS011;11648;49.306;6.934;2024-02-16T05:03:56;3.67;;;1.30;;
22963;SDS011;11648;49.306;6.934;2024-02-16T05:06:24;3.60;;;1.30;;
22963;SDS011;11648;49.306;6.934;2024-02-16T05:08:51;2.87;;;1.13;;
22963;SDS011;11648;49.306;6.934;2024-02-16T05:11:18;3.40;;;1.20;;
22963;SDS011;11648;49.306;6.934;2024-02-16T05:13:45;3.13;;;1.27;;
22963;SDS011;11648;49.306;6.934;2024-02-16T05:16:12;2.57;;;1.27;;
22963;SDS011;11648;49.306;6.934;2024-02-16T05:18:39;3.47;;;1.20;;
22963;SDS011;11648;49.306;6.934;2024-02-16T05:21:07;2.50;;;1.23;;
22963;SDS011;11648;49.306;6.934;2024-02-16T05:23:34;4.97;;;1.47;;
22963;SDS011;11648;49.306;6.934;2024-02-16T05:26:01;5.03;;;1.27;;
22963;SDS011;11648;49.306;6.934;2024-02-16T05:28:28;3.53;;;1.37;;
22963;SDS011;11648;49.306;6.934;2024-02-16T05:30:55;6.13;;;1.43;;
22963;SDS011;11648;49.306;6.934;2024-02-16T05:33:24;3.13;;;1.30;;
22963;SDS011;11648;49.306;6.934;2024-02-16T05:35:51;3.40;;;1.43;;
22963;SDS011;11648;49.306;6.934;2024-02-16T05:38:22;3.50;;;1.30;;
22963;SDS011;11648;49.306;6.934;2024-02-16T05:40:59;2.73;;;1.23;;
22963;SDS011;11648;49.306;6.934;2024-02-16T05:43:26;4.27;;;1.30;;
22963;SDS011;11648;49.306;6.934;2024-02-16T05:45:53;3.53;;;1.43;;
22963;SDS011;11648;49.306;6.934;2024-02-16T05:48:20;3.70;;;1.37;;
22963;SDS011;11648;49.306;6.934;2024-02-16T05:50:48;7.03;;;1.70;;
22963;SDS011;11648;49.306;6.934;2024-02-16T05:53:16;4.30;;;1.50;;
22963;SDS011;11648;49.306;6.934;2024-02-16T05:55:42;3.10;;;1.20;;
22963;SDS011;11648;49.306;6.934;2024-02-16T05:58:11;4.10;;;1.23;;
22963;SDS011;11648;49.306;6.934;2024-02-16T06:00:39;4.00;;;1.40;;
22963;SDS011;11648;49.306;6.934;2024-02-16T06:03:06;3.80;;;1.60;;
22963;SDS011;11648;49.306;6.934;2024-02-16T06:05:34;2.97;;;1.20;;
22963;SDS011;11648;49.306;6.934;2024-02-16T06:08:01;3.40;;;1.27;;
22963;SDS011;11648;49.306;6.934;2024-02-16T06:10:28;4.23;;;1.50;;
22963;SDS011;11648;49.306;6.934;2024-02-16T06:12:54;3.77;;;1.57;;
22963;SDS011;11648;49.306;6.934;2024-02-16T06:15:21;3.10;;;1.40;;
22963;SDS011;11648;49.306;6.934;2024-02-16T06:17:48;3.30;;;1.23;;
22963;SDS011;11648;49.306;6.934;2024-02-16T06:20:17;2.90;;;1.27;;
22963;SDS011;11648;49.306;6.934;2024-02-16T06:22:46;3.10;;;1.50;;
22963;SDS011;11648;49.306;6.934;2024-02-16T06:25:14;4.53;;;1.60;;
22963;SDS011;11648;49.306;6.934;2024-02-16T06:27:42;4.97;;;1.33;;
22963;SDS011;11648;49.306;6.934;2024-02-16T06:30:09;2.90;;;1.30;;
22963;SDS011;11648;49.306;6.934;2024-02-16T06:32:40;3.10;;;1.53;;
22963;SDS011;11648;49.306;6.934;2024-02-16T06:35:07;3.67;;;1.60;;
22963;SDS011;11648;49.306;6.934;2024-02-16T06:37:35;3.57;;;1.57;;
22963;SDS011;11648;49.306;6.934;2024-02-16T06:40:04;3.83;;;1.40;;
22963;SDS011;11648;49.306;6.934;2024-02-16T06:42:32;3.63;;;1.43;;
22963;SDS011;11648;49.306;6.934;2024-02-16T06:45:01;5.40;;;1.40;;
22963;SDS011;11648;49.306;6.934;2024-02-16T06:47:28;4.63;;;1.40;;
22963;SDS011;11648;49.306;6.934;2024-02-16T06:49:55;2.70;;;1.30;;
22963;SDS011;11648;49.306;6.934;2024-02-16T06:52:22;2.93;;;1.60;;
22963;SDS011;11648;49.306;6.934;2024-02-16T06:54:50;4.93;;;1.37;;
22963;SDS011;11648;49.306;6.934;2024-02-16T06:57:18;3.83;;;1.60;;
22963;SDS011;11648;49.306;6.934;2024-02-16T06:59:46;5.87;;;1.40;;
22963;SDS011;11648;49.306;6.934;2024-02-16T07:02:14;4.20;;;1.47;;
22963;SDS011;11648;49.306;6.934;2024-02-16T07:04:41;3.40;;;1.50;;
22963;SDS011;11648;49.306;6.934;2024-02-16T07:07:09;8.03;;;3.40;;
22963;SDS011;11648;49.306;6.934;2024-02-16T07:09:36;5.80;;;3.47;;
22963;SDS011;11648;49.306;6.934;2024-02-16T07:12:03;5.43;;;1.90;;
22963;SDS011;11648;49.306;6.934;2024-02-16T07:14:31;7.37;;;2.60;;
22963;SDS011;11648;49.306;6.934;2024-02-16T07:16:58;5.43;;;2.83;;
22963;SDS011;11648;49.306;6.934;2024-02-16T07:19:24;4.57;;;1.77;;
22963;SDS011;11648;49.306;6.934;2024-02-16T07:21:51;4.07;;;1.80;;
22963;SDS011;11648;49.306;6.934;2024-02-16T07:24:18;3.27;;;1.63;;
22963;SDS011;11648;49.306;6.934;2024-02-16T07:26:45;3.57;;;1.40;;
22963;SDS011;11648;49.306;6.934;2024-02-16T07:29:12;4.23;;;1.63;;
22963;SDS011;11648;49.306;6.934;2024-02-16T07:31:43;3.50;;;1.80;;
22963;SDS011;11648;49.306;6.934;2024-02-16T07:34:10;3.73;;;1.63;;
22963;SDS011;11648;49.306;6.934;2024-02-16T07:36:40;3.57;;;1.70;;
22963;SDS011;11648;49.306;6.934;2024-02-16T07:39:07;4.77;;;2.20;;
22963;SDS011;11648;49.306;6.934;2024-02-16T07:41:34;4.07;;;1.97;;
22963;SDS011;11648;49.306;6.934;2024-02-16T07:44:01;3.73;;;1.70;;
22963;SDS011;11648;49.306;6.934;2024-02-16T07:46:28;4.80;;;1.70;;
22963;SDS011;11648;49.306;6.934;2024-02-16T07:48:58;2.87;;;1.37;;
22963;SDS011;11648;49.306;6.934;2024-02-16T07:51:25;4.60;;;1.80;;
22963;SDS011;11648;49.306;6.934;2024-02-16T07:53:52;4.70;;;1.90;;
22963;SDS011;11648;49.306;6.934;2024-02-16T07:56:19;3.50;;;1.63;;
22963;SDS011;11648;49.306;6.934;2024-02-16T07:58:47;4.73;;;2.00;;
22963;SDS011;11648;49.306;6.934;2024-02-16T08:01:14;5.03;;;2.13;;
22963;SDS011;11648;49.306;6.934;2024-02-16T08:03:44;3.63;;;2.20;;
22963;SDS011;11648;49.306;6.934;2024-02-16T08:06:11;4.93;;;2.37;;
22963;SDS011;11648;49.306;6.934;2024-02-16T08:08:38;5.40;;;2.00;;
22963;SDS011;11648;49.306;6.934;2024-02-16T08:11:05;4.30;;;2.40;;
22963;SDS011;11648;49.306;6.934;2024-02-16T08:13:32;3.67;;;1.97;;
22963;SDS011;11648;49.306;6.934;2024-02-16T08:15:59;5.10;;;2.20;;
22963;SDS011;11648;49.306;6.934;2024-02-16T08:18:26;3.43;;;1.93;;
22963;SDS011;11648;49.306;6.934;2024-02-16T08:20:53;8.60;;;2.20;;
22963;SDS011;11648;49.306;6.934;2024-02-16T08:23:20;3.93;;;2.00;;
22963;SDS011;11648;49.306;6.934;2024-02-16T08:25:47;4.87;;;2.50;;
22963;SDS011;11648;49.306;6.934;2024-02-16T08:28:14;6.03;;;2.23;;
22963;SDS011;11648;49.306;6.934;2024-02-16T08:30:41;5.47;;;2.60;;
22963;SDS011;11648;49.306;6.934;2024-02-16T08:33:10;6.60;;;3.00;;
22963;SDS011;11648;49.306;6.934;2024-02-16T08:35:39;3.87;;;2.20;;
22963;SDS011;11648;49.306;6.934;2024-02-16T08:38:06;5.03;;;2.70;;
22963;SDS011;11648;49.306;6.934;2024-02-16T08:40:37;5.77;;;3.57;;
22963;SDS011;11648;49.306;6.934;2024-02-16T08:43:05;5.07;;;2.20;;
22963;SDS011;11648;49.306;6.934;2024-02-16T08:45:33;4.57;;;2.00;;
22963;SDS011;11648;49.306;6.934;2024-02-16T08:48:01;4.80;;;2.70;;
22963;SDS011;11648;49.306;6.934;2024-02-16T08:50:30;4.00;;;2.27;;
22963;SDS011;11648;49.306;6.934;2024-02-16T08:52:57;4.63;;;2.43;;
22963;SDS011;11648;49.306;6.934;2024-02-16T08:55:24;5.43;;;2.20;;
22963;SDS011;11648;49.306;6.934;2024-02-16T08:57:51;6.27;;;2.60;;
22963;SDS011;11648;49.306;6.934;2024-02-16T09:00:18;6.03;;;1.93;;
22963;SDS011;11648;49.306;6.934;2024-02-16T09:02:46;4.70;;;1.80;;
22963;SDS011;11648;49.306;6.934;2024-02-16T09:05:13;5.40;;;2.00;;
22963;SDS011;11648;49.306;6.934;2024-02-16T09:07:40;5.20;;;2.10;;
22963;SDS011;11648;49.306;6.934;2024-02-16T09:10:07;4.33;;;1.97;;
22963;SDS011;11648;49.306;6.934;2024-02-16T09:12:35;5.33;;;1.90;;
22963;SDS011;11648;49.306;6.934;2024-02-16T09:15:02;5.40;;;2.10;;
22963;SDS011;11648;49.306;6.934;2024-02-16T09:17:30;5.40;;;2.00;;
22963;SDS011;11648;49.306;6.934;2024-02-16T09:19:57;5.90;;;2.20;;
22963;SDS011;11648;49.306;6.934;2024-02-16T09:22:24;5.03;;;2.07;;
22963;SDS011;11648;49.306;6.934;2024-02-16T09:24:54;4.87;;;1.93;;
22963;SDS011;11648;49.306;6.934;2024-02-16T09:27:22;6.20;;;1.90;;
22963;SDS011;11648;49.306;6.934;2024-02-16T09:29:53;4.47;;;1.77;;
22963;SDS011;11648;49.306;6.934;2024-02-16T09:32:19;7.10;;;2.10;;
22963;SDS011;11648;49.306;6.934;2024-02-16T09:34:46;4.60;;;1.93;;
22963;SDS011;11648;49.306;6.934;2024-02-16T09:37:13;4.53;;;2.20;;
22963;SDS011;11648;49.306;6.934;2024-02-16T09:39:40;4.43;;;1.70;;
22963;SDS011;11648;49.306;6.934;2024-02-16T09:42:08;4.33;;;1.53;;
22963;SDS011;11648;49.306;6.934;2024-02-16T09:44:35;5.33;;;2.50;;
22963;SDS011;11648;49.306;6.934;2024-02-16T09:47:03;5.63;;;2.13;;
22963;SDS011;11648;49.306;6.934;2024-02-16T09:49:31;5.10;;;2.00;;
22963;SDS011;11648;49.306;6.934;2024-02-16T09:52:06;6.33;;;2.00;;
22963;SDS011;11648;49.306;6.934;2024-02-16T09:54:37;4.70;;;1.90;;
22963;SDS011;11648;49.306;6.934;2024-02-16T09:57:07;6.50;;;1.77;;
22963;SDS011;11648;49.306;6.934;2024-02-16T09:59:35;3.33;;;1.60;;
22963;SDS011;11648;49.306;6.934;2024-02-16T10:02:02;4.70;;;1.73;;
22963;SDS011;11648;49.306;6.934;2024-02-16T10:04:29;7.80;;;3.30;;
22963;SDS011;11648;49.306;6.934;2024-02-16T10:07:02;4.93;;;1.80;;
22963;SDS011;11648;49.306;6.934;2024-02-16T10:09:35;5.20;;;1.80;;
22963;SDS011;11648;49.306;6.934;2024-02-16T10:12:02;4.63;;;1.60;;
22963;SDS011;11648;49.306;6.934;2024-02-16T10:14:30;7.90;;;1.93;;
22963;SDS011;11648;49.306;6.934;2024-02-16T10:16:59;4.70;;;2.00;;
22963;SDS011;11648;49.306;6.934;2024-02-16T10:19:27;6.57;;;2.57;;
22963;SDS011;11648;49.306;6.934;2024-02-16T10:21:54;5.40;;;2.07;;
22963;SDS011;11648;49.306;6.934;2024-02-16T10:24:33;5.97;;;1.90;;
22963;SDS011;11648;49.306;6.934;2024-02-16T10:27:00;5.90;;;2.10;;
22963;SDS011;11648;49.306;6.934;2024-02-16T10:29:27;4.43;;;1.90;;
22963;SDS011;11648;49.306;6.934;2024-02-16T10:31:54;5.63;;;1.80;;
22963;SDS011;11648;49.306;6.934;2024-02-16T10:34:22;4.83;;;1.67;;
22963;SDS011;11648;49.306;6.934;2024-02-16T10:36:51;5.00;;;1.90;;
22963;SDS011;11648;49.306;6.934;2024-02-16T10:39:18;4.53;;;1.70;;
22963;SDS011;11648;49.306;6.934;2024-02-16T10:41:46;3.70;;;1.80;;
22963;SDS011;11648;49.306;6.934;2024-02-16T10:44:13;4.60;;;1.73;;
22963;SDS011;11648;49.306;6.934;2024-02-16T10:46:40;3.60;;;1.63;;
22963;SDS011;11648;49.306;6.934;2024-02-16T10:49:07;4.43;;;1.60;;
22963;SDS011;11648;49.306;6.934;2024-02-16T10:51:43;3.03;;;1.37;;
22963;SDS011;11648;49.306;6.934;2024-02-16T10:54:17;6.57;;;1.83;;
22963;SDS011;11648;49.306;6.934;2024-02-16T10:56:46;5.30;;;1.67;;
22963;SDS011;11648;49.306;6.934;2024-02-16T10:59:16;6.90;;;2.10;;
22963;SDS011;11648;49.306;6.934;2024-02-16T11:01:44;5.73;;;1.50;;
22963;SDS011;11648;49.306;6.934;2024-02-16T11:04:13;5.43;;;1.77;;
22963;SDS011;11648;49.306;6.934;2024-02-16T11:06:46;6.87;;;1.80;;
22963;SDS011;11648;49.306;6.934;2024-02-16T11:09:28;3.43;;;1.70;;
22963;SDS011;11648;49.306;6.934;2024-02-16T11:11:59;7.60;;;1.73;;
22963;SDS011;11648;49.306;6.934;2024-02-16T11:14:34;4.73;;;2.00;;
22963;SDS011;11648;49.306;6.934;2024-02-16T11:17:12;5.10;;;2.07;;
22963;SDS011;11648;49.306;6.934;2024-02-16T11:19:43;5.60;;;1.77;;
22963;SDS011;11648;49.306;6.934;2024-02-16T11:22:14;5.30;;;1.60;;
22963;SDS011;11648;49.306;6.934;2024-02-16T11:24:46;4.13;;;1.73;;
22963;SDS011;11648;49.306;6.934;2024-02-16T11:27:14;5.37;;;1.70;;
22963;SDS011;11648;49.306;6.934;2024-02-16T11:29:49;3.97;;;1.70;;
22963;SDS011;11648;49.306;6.934;2024-02-16T11:32:17;4.77;;;1.80;;
22963;SDS011;11648;49.306;6.934;2024-02-16T11:34:45;6.30;;;1.83;;
22963;SDS011;11648;49.306;6.934;2024-02-16T11:37:13;5.13;;;1.70;;
22963;SDS011;11648;49.306;6.934;2024-02-16T11:39:43;5.37;;;1.87;;
22963;SDS011;11648;49.306;6.934;2024-02-16T11:42:13;4.37;;;1.77;;
22963;SDS011;11648;49.306;6.934;2024-02-16T11:44:52;6.20;;;1.70;;
22963;SDS011;11648;49.306;6.934;2024-02-16T11:47:24;5.80;;;1.80;;
22963;SDS011;11648;49.306;6.934;2024-02-16T11:52:32;5.00;;;1.67;;
22963;SDS011;11648;49.306;6.934;2024-02-16T11:55:01;6.73;;;1.90;;
22963;SDS011;11648;49.306;6.934;2024-02-16T11:57:31;7.37;;;2.00;;
22963;SDS011;11648;49.306;6.934;2024-02-16T11:59:58;4.87;;;1.80;;
22963;SDS011;11648;49.306;6.934;2024-02-16T12:02:25;7.53;;;2.00;;
22963;SDS011;11648;49.306;6.934;2024-02-16T12:04:58;5.83;;;2.00;;
22963;SDS011;11648;49.306;6.934;2024-02-16T12:07:30;4.97;;;1.80;;
22963;SDS011;11648;49.306;6.934;2024-02-16T12:09:59;6.83;;;2.03;;
22963;SDS011;11648;49.306;6.934;2024-02-16T12:12:27;5.27;;;1.80;;
22963;SDS011;11648;49.306;6.934;2024-02-16T12:14:55;8.67;;;1.83;;
22963;SDS011;11648;49.306;6.934;2024-02-16T12:17:22;6.13;;;1.77;;
22963;SDS011;11648;49.306;6.934;2024-02-16T12:19:50;5.73;;;1.90;;
22963;SDS011;11648;49.306;6.934;2024-02-16T12:22:18;4.50;;;1.57;;
22963;SDS011;11648;49.306;6.934;2024-02-16T12:24:47;5.67;;;2.00;;
22963;SDS011;11648;49.306;6.934;2024-02-16T12:27:19;4.57;;;1.80;;
22963;SDS011;11648;49.306;6.934;2024-02-16T12:29:45;6.57;;;1.80;;
22963;SDS011;11648;49.306;6.934;2024-02-16T12:32:13;6.23;;;1.60;;
22963;SDS011;11648;49.306;6.934;2024-02-16T12:34:45;4.33;;;2.10;;
22963;SDS011;11648;49.306;6.934;2024-02-16T12:37:13;5.20;;;1.77;;
22963;SDS011;11648;49.306;6.934;2024-02-16T12:39:40;4.70;;;1.90;;
22963;SDS011;11648;49.306;6.934;2024-02-16T12:42:07;6.30;;;1.77;;
22963;SDS011;11648;49.306;6.934;2024-02-16T12:44:34;4.80;;;1.70;;
22963;SDS011;11648;49.306;6.934;2024-02-16T12:47:01;4.23;;;1.67;;
22963;SDS011;11648;49.306;6.934;2024-02-16T12:49:28;4.67;;;1.47;;
22963;SDS011;11648;49.306;6.934;2024-02-16T12:51:55;6.73;;;1.57;;
22963;SDS011;11648;49.306;6.934;2024-02-16T12:54:22;5.23;;;1.70;;
22963;SDS011;11648;49.306;6.934;2024-02-16T12:56:49;4.47;;;1.60;;
22963;SDS011;11648;49.306;6.934;2024-02-16T12:59:18;6.83;;;1.80;;
22963;SDS011;11648;49.306;6.934;2024-02-16T13:01:44;5.37;;;1.80;;
22963;SDS011;11648;49.306;6.934;2024-02-16T13:04:13;4.83;;;1.80;;
22963;SDS011;11648;49.306;6.934;2024-02-16T13:06:47;5.37;;;1.80;;
22963;SDS011;11648;49.306;6.934;2024-02-16T13:09:16;5.17;;;1.90;;
22963;SDS011;11648;49.306;6.934;2024-02-16T13:11:43;3.47;;;1.50;;
22963;SDS011;11648;49.306;6.934;2024-02-16T13:14:10;4.30;;;1.63;;
22963;SDS011;11648;49.306;6.934;2024-02-16T13:16:37;5.50;;;1.90;;
22963;SDS011;11648;49.306;6.934;2024-02-16T13:19:03;5.20;;;1.60;;
22963;SDS011;11648;49.306;6.934;2024-02-16T13:21:30;5.03;;;1.83;;
22963;SDS011;11648;49.306;6.934;2024-02-16T13:23:57;3.27;;;1.37;;
22963;SDS011;11648;49.306;6.934;2024-02-16T13:26:25;3.90;;;1.60;;
22963;SDS011;11648;49.306;6.934;2024-02-16T13:28:51;4.67;;;1.70;;
22963;SDS011;11648;49.306;6.934;2024-02-16T13:31:20;4.50;;;1.40;;
22963;SDS011;11648;49.306;6.934;2024-02-16T13:33:48;4.93;;;1.60;;
22963;SDS011;11648;49.306;6.934;2024-02-16T13:36:15;5.17;;;1.47;;
22963;SDS011;11648;49.306;6.934;2024-02-16T13:38:42;4.37;;;1.30;;
22963;SDS011;11648;49.306;6.934;2024-02-16T13:41:09;2.60;;;1.17;;
22963;SDS011;11648;49.306;6.934;2024-02-16T13:43:36;4.00;;;1.30;;
22963;SDS011;11648;49.306;6.934;2024-02-16T13:46:03;2.33;;;1.10;;
22963;SDS011;11648;49.306;6.934;2024-02-16T13:48:30;2.83;;;1.20;;
22963;SDS011;11648;49.306;6.934;2024-02-16T13:50:58;3.07;;;1.10;;
22963;SDS011;11648;49.306;6.934;2024-02-16T13:53:26;3.50;;;1.20;;
22963;SDS011;11648;49.306;6.934;2024-02-16T13:55:53;3.23;;;1.10;;
22963;SDS011;11648;49.306;6.934;2024-02-16T13:58:22;3.37;;;1.40;;
22963;SDS011;11648;49.306;6.934;2024-02-16T14:00:49;2.60;;;0.80;;
22963;SDS011;11648;49.306;6.934;2024-02-16T14:03:16;4.13;;;1.20;;
22963;SDS011;11648;49.306;6.934;2024-02-16T14:05:44;2.40;;;1.00;;
22963;SDS011;11648;49.306;6.934;2024-02-16T14:08:12;2.93;;;1.10;;
22963;SDS011;11648;49.306;6.934;2024-02-16T14:10:39;2.17;;;1.10;;
22963;SDS011;11648;49.306;6.934;2024-02-16T14:13:06;1.80;;;0.80;;
22963;SDS011;11648;49.306;6.934;2024-02-16T14:15:33;4.23;;;0.90;;
22963;SDS011;11648;49.306;6.934;2024-02-16T14:18:00;4.90;;;0.97;;
22963;SDS011;11648;49.306;6.934;2024-02-16T14:20:37;2.43;;;0.80;;
22963;SDS011;11648;49.306;6.934;2024-02-16T14:23:04;3.53;;;1.03;;
22963;SDS011;11648;49.306;6.934;2024-02-16T14:25:34;2.93;;;0.87;;
22963;SDS011;11648;49.306;6.934;2024-02-16T14:28:04;3.77;;;1.03;;
22963;SDS011;11648;49.306;6.934;2024-02-16T14:30:31;1.80;;;0.80;;
22963;SDS011;11648;49.306;6.934;2024-02-16T14:33:01;3.03;;;1.00;;
22963;SDS011;11648;49.306;6.934;2024-02-16T14:35:31;2.67;;;1.00;;
22963;SDS011;11648;49.306;6.934;2024-02-16T14:38:03;3.47;;;1.27;;
22963;SDS011;11648;49.306;6.934;2024-02-16T14:40:31;2.37;;;1.10;;
22963;SDS011;11648;49.306;6.934;2024-02-16T14:43:00;2.27;;;1.27;;
22963;SDS011;11648;49.306;6.934;2024-02-16T14:45:27;3.10;;;1.20;;
22963;SDS011;11648;49.306;6.934;2024-02-16T14:47:55;2.37;;;1.10;;
22963;SDS011;11648;49.306;6.934;2024-02-16T14:50:22;3.13;;;1.30;;
22963;SDS011;11648;49.306;6.934;2024-02-16T14:52:48;4.40;;;1.40;;
22963;SDS011;11648;49.306;6.934;2024-02-16T14:55:16;4.87;;;1.43;;